Avoca, AR

4:41 AM CDT on August 18, 2019 (GMT -0500)
Avoca | | Change Station
Active Advisory: Severe Thunderstorm Watch

Elev 1348 ft 36.41 °N, 94.07 °W | Updated 6 seconds ago

Clear
Clear
75.1 °F
Feels Like 75 °F
N
1
Wind Variable Wind from SE
Gusts 3.0 mph

Today
High -- | Low -- °F
--% Chance of Precip.
Yesterday
High -- | Low -- °F
Precip. -- in
Pressure 29.85 in
Visibility 10.0 miles
Clouds Clear
Heat Index 75 °F
Dew Point 71 °F
Humidity 86%
Rainfall 0.00 in
Snow Depth Not available.
6:36 AM 8:03 PM
Waning Gibbous, 93% visible
METAR KROG 180858Z AUTO 16006KT 10SM CLR 25/21 A2990 RMK AO2 SLP106 T02500206 55000
Pressure 29.85 in
Visibility 10.0 miles
Clouds Clear
Heat Index 75 °F
Dew Point 71 °F
Humidity 86%
Rainfall 0.00 in
Snow Depth Not available.
6:36 AM 8:03 PM
Waning Gibbous, 93% visible
METAR KROG 180858Z AUTO 16006KT 10SM CLR 25/21 A2990 RMK AO2 SLP106 T02500206 55000

Get Your Daily Forecast Email!

Thanks for signing up!

Be on the lookout for a verification email in your inbox.

You'll start receiving severe weather alerts in your inbox..

×

10-Day Weather Forecast

Almanac

Astronomy

Aug. 18, 2019 Rise Set
Actual Time
Civil Twilight
Nautical Twilight
Astronomical Twilight
Moon
Length of Visible Light
Length of Day
Tomorrow will be .
, % of the Moon is Illuminated

Today's Extremes

State Highs State Lows

Community

WunderPhotos

Category 6

Welcome to Category 6. This is the collective home for Weather Underground's featured writeups by Dr. Jeff Masters (right), Bob Henson (left), Chris Burt, and other regular contributors.

Nearby

Air Quality

  Air Quality AQ Index Pollutant
Not available.

Snow Depth

Station Depth Elevation

Earthquake Activity

City Distance Mag. Time & Date
Minimum magnitude displayed is 2.5.

Coastal Water Temperatures

Place Temperature

Stations

Nearby Weather Stations

Station Location Temp. Windchill Dew Point Humidity Wind Precip. Elev Updated Type
                   

Watches & Warnings

Severe Thunderstorm Watch
Issued: 4:23 AM CDT Aug. 18, 2019 – National Weather Service

Severe Thunderstorm Watch 596 remains in effect until 1000 am CDT
for the following locations


AR
. Arkansas counties included are

Benton Carroll Madison
Washington